Dallas, Texas
Current Conditions -  °F | °C
As of 4:53 AM on Thursday 23 Oct 2014 (Local Time) from KDAL Reporting Station
Overcast Overcast  
Wind Chill: 65°   Ceiling: 8000
Heat Index: 65°   Visibility: 10mi
Dew Point: 54°   Wind: 9mph
Humidity: 68%   Direction: 100°E
Pressure: 30.11"   Gusts: NA
Location:  32.78°N, 96.79°W
Report Text: KDAL 230953Z 10008KT 10SM BKN080 OVC120 18/12 A3011 RMK AO2 RAE23 SLP191 P0000 T01830122
Loading
Personal Weather Stations






























Interactive Weather Map
Tropical Storm Tracking
New forecast layout! Learn more

10-Day Weather Forecast

Advertisements
Track Severe Weather on mobile